Time;durP1;ratioP1;P1;durP2;ratioP2;P2;SDS_P1;SDS_P2;PMS_P1;PMS_P2;Temp;Humidity;BMP_temperature;BMP_pressure;BME280_temperature;BME280_humidity;BME280_pressure;Samples;Min_cycle;Max_cycle;Signal;HPM_P1;HPM_P2
2023/07/19 00:00:16;;;;;;;12.98;4.93;;;;;;;;;;4914085;29;20039;-80
2023/07/19 00:02:42;;;;;;;19.98;5.80;;;;;;;;;;4913483;29;20040;-80
2023/07/19 00:05:09;;;;;;;10.93;5.18;;;;;;;;;;4921764;29;20539;-81
2023/07/19 00:07:35;;;;;;;12.75;5.20;;;;;;;;;;4913881;29;20040;-80
2023/07/19 00:10:01;;;;;;;12.93;5.68;;;;;;;;;;4896019;29;20062;-80
2023/07/19 00:12:27;;;;;;;13.02;5.50;;;;;;;;;;4913605;29;20036;-80
2023/07/19 00:14:53;;;;;;;13.73;5.75;;;;;;;;;;4911943;29;20119;-80
2023/07/19 00:17:19;;;;;;;11.88;5.18;;;;;;;;;;4903548;29;20116;-80
2023/07/19 00:19:45;;;;;;;13.52;4.97;;;;;;;;;;4913208;29;20046;-80
2023/07/19 00:22:11;;;;;;;13.63;5.75;;;;;;;;;;4915248;29;20115;-80
2023/07/19 00:24:37;;;;;;;12.18;5.28;;;;;;;;;;4913527;29;20044;-80
2023/07/19 00:27:03;;;;;;;10.65;5.43;;;;;;;;;;4914708;29;20372;-80
2023/07/19 00:29:29;;;;;;;16.20;5.40;;;;;;;;;;4913194;29;20036;-80
2023/07/19 00:31:55;;;;;;;13.63;5.55;;;;;;;;;;4913450;29;20511;-80
2023/07/19 00:34:21;;;;;;;16.17;5.85;;;;;;;;;;4912674;29;20052;-80
2023/07/19 00:36:47;;;;;;;11.48;5.65;;;;;;;;;;4913629;29;20035;-80
2023/07/19 00:39:13;;;;;;;14.80;5.60;;;;;;;;;;4913585;29;20380;-80
2023/07/19 00:41:39;;;;;;;14.52;5.38;;;;;;;;;;4913924;29;20036;-80
2023/07/19 00:44:05;;;;;;;12.90;5.40;;;;;;;;;;4913121;29;20510;-80
2023/07/19 00:46:31;;;;;;;10.95;5.32;;;;;;;;;;4905337;29;20041;-81
2023/07/19 00:48:57;;;;;;;9.85;4.55;;;;;;;;;;4912165;29;20452;-80
2023/07/19 00:51:24;;;;;;;18.27;5.45;;;;;;;;;;4908836;29;20494;-80
2023/07/19 00:53:50;;;;;;;16.42;5.88;;;;;;;;;;4902802;29;20084;-80
2023/07/19 00:56:16;;;;;;;14.18;5.93;;;;;;;;;;4912652;29;20028;-80
2023/07/19 00:58:43;;;;;;;14.25;5.45;;;;;;;;;;4913597;29;20084;-80
2023/07/19 01:01:09;;;;;;;20.13;5.78;;;;;;;;;;4913789;29;20039;-80
2023/07/19 01:03:36;;;;;;;18.55;6.18;;;;;;;;;;4900961;29;20047;-80
2023/07/19 01:06:05;;;;;;;12.07;5.90;;;;;;;;;;4910276;29;20067;-80
2023/07/19 01:08:31;;;;;;;14.70;6.28;;;;;;;;;;4916404;29;20601;-80
2023/07/19 01:10:57;;;;;;;13.23;5.68;;;;;;;;;;4892089;29;20803;-80
2023/07/19 01:13:23;;;;;;;15.32;5.40;;;;;;;;;;4914994;29;20107;-80
2023/07/19 01:15:49;;;;;;;13.15;5.65;;;;;;;;;;4916387;29;20046;-80
2023/07/19 01:18:15;;;;;;;13.55;6.15;;;;;;;;;;4916447;29;20071;-80
2023/07/19 01:20:41;;;;;;;10.68;6.10;;;;;;;;;;4916087;29;20036;-80
2023/07/19 01:23:07;;;;;;;13.10;5.93;;;;;;;;;;4916593;29;20055;-80
2023/07/19 01:25:33;;;;;;;14.90;5.95;;;;;;;;;;4915940;29;20424;-80
2023/07/19 01:28:00;;;;;;;10.80;5.20;;;;;;;;;;4916575;29;20106;-80
2023/07/19 01:30:26;;;;;;;13.35;6.22;;;;;;;;;;4910890;29;20036;-80
2023/07/19 01:32:52;;;;;;;11.52;5.97;;;;;;;;;;4912611;29;20032;-80
2023/07/19 01:35:18;;;;;;;12.30;6.63;;;;;;;;;;4917133;29;20123;-80
2023/07/19 01:37:45;;;;;;;17.52;6.63;;;;;;;;;;4917480;29;20029;-80
2023/07/19 01:40:11;;;;;;;14.15;6.90;;;;;;;;;;4917030;29;20076;-80
2023/07/19 01:42:38;;;;;;;15.68;6.50;;;;;;;;;;4916835;29;20107;-80
2023/07/19 01:45:04;;;;;;;15.73;6.97;;;;;;;;;;4916352;29;20036;-80
2023/07/19 01:47:30;;;;;;;17.00;7.25;;;;;;;;;;4910664;29;20060;-80
2023/07/19 01:49:56;;;;;;;16.55;7.18;;;;;;;;;;4914901;29;20099;-80
2023/07/19 01:52:22;;;;;;;16.13;7.63;;;;;;;;;;4916543;29;20658;-80
2023/07/19 01:54:48;;;;;;;18.52;7.78;;;;;;;;;;4905139;29;20162;-80
2023/07/19 01:57:15;;;;;;;16.58;7.53;;;;;;;;;;4915101;29;20079;-80
2023/07/19 01:59:41;;;;;;;18.83;7.22;;;;;;;;;;4915920;29;20420;-80
2023/07/19 02:02:07;;;;;;;18.15;7.65;;;;;;;;;;4925481;29;20036;-81
2023/07/19 02:04:33;;;;;;;16.35;7.20;;;;;;;;;;4915200;29;20067;-80
2023/07/19 02:06:59;;;;;;;16.15;7.35;;;;;;;;;;4915699;29;20107;-80
2023/07/19 02:09:25;;;;;;;17.40;6.97;;;;;;;;;;4916302;29;20040;-80
2023/07/19 02:11:51;;;;;;;16.15;7.53;;;;;;;;;;4915163;29;20467;-80
2023/07/19 02:14:18;;;;;;;17.98;7.90;;;;;;;;;;4906194;29;20120;-80
2023/07/19 02:16:44;;;;;;;14.70;7.18;;;;;;;;;;4914656;29;20481;-80
2023/07/19 02:19:10;;;;;;;19.08;7.38;;;;;;;;;;4915989;29;20051;-80
2023/07/19 02:21:36;;;;;;;20.67;8.02;;;;;;;;;;4915567;29;20032;-80
2023/07/19 02:24:02;;;;;;;14.93;7.30;;;;;;;;;;4915975;29;20391;-80
2023/07/19 02:26:28;;;;;;;14.93;6.70;;;;;;;;;;4915336;29;20068;-80
2023/07/19 02:28:54;;;;;;;18.63;8.35;;;;;;;;;;4915985;29;20067;-80
2023/07/19 02:31:20;;;;;;;14.77;7.88;;;;;;;;;;4912459;29;20684;-80
2023/07/19 02:33:46;;;;;;;16.80;7.40;;;;;;;;;;4918713;29;20103;-80
2023/07/19 02:36:12;;;;;;;17.33;7.88;;;;;;;;;;4915116;29;20032;-80
2023/07/19 02:38:38;;;;;;;19.23;7.78;;;;;;;;;;4914988;29;20044;-80
2023/07/19 02:41:04;;;;;;;19.00;8.32;;;;;;;;;;4898572;29;20024;-80
2023/07/19 02:43:30;;;;;;;17.05;8.10;;;;;;;;;;4921528;29;20040;-80
2023/07/19 02:45:57;;;;;;;17.85;7.60;;;;;;;;;;4911435;29;20039;-80
2023/07/19 02:48:23;;;;;;;24.98;8.43;;;;;;;;;;4914788;29;20032;-80
2023/07/19 02:50:49;;;;;;;13.32;7.57;;;;;;;;;;4903943;29;20067;-80
2023/07/19 02:53:16;;;;;;;13.85;7.47;;;;;;;;;;4915128;29;20036;-80
2023/07/19 02:55:45;;;;;;;14.20;7.53;;;;;;;;;;4914871;29;20051;-80
2023/07/19 02:58:11;;;;;;;16.77;7.80;;;;;;;;;;4905026;29;20040;-80
2023/07/19 03:00:41;;;;;;;14.13;7.60;;;;;;;;;;4914509;29;20491;-80
2023/07/19 03:03:07;;;;;;;18.95;7.28;;;;;;;;;;4914876;29;20039;-80
2023/07/19 03:05:43;;;;;;;12.98;7.85;;;;;;;;;;4915016;29;20051;-80
2023/07/19 03:08:10;;;;;;;17.33;8.57;;;;;;;;;;4915939;29;20574;-80
2023/07/19 03:10:36;;;;;;;18.75;8.15;;;;;;;;;;4915656;29;20533;-80
2023/07/19 03:13:02;;;;;;;17.23;7.75;;;;;;;;;;4915770;29;20044;-80
2023/07/19 03:15:32;;;;;;;17.77;7.60;;;;;;;;;;4913024;29;20517;-80
2023/07/19 03:17:58;;;;;;;17.85;7.95;;;;;;;;;;4914764;29;20072;-80
2023/07/19 03:20:25;;;;;;;19.95;8.43;;;;;;;;;;4917635;29;20083;-80
2023/07/19 03:22:51;;;;;;;16.38;7.95;;;;;;;;;;4912630;29;20380;-80
2023/07/19 03:25:17;;;;;;;14.38;7.38;;;;;;;;;;4908385;29;20084;-80
2023/07/19 03:27:43;;;;;;;19.92;7.43;;;;;;;;;;4914172;29;20036;-80
2023/07/19 03:30:10;;;;;;;16.38;7.45;;;;;;;;;;4913330;29;20063;-80
2023/07/19 03:32:36;;;;;;;12.55;7.15;;;;;;;;;;4914719;29;20044;-80
2023/07/19 03:35:02;;;;;;;15.45;7.47;;;;;;;;;;4913694;29;20040;-80
2023/07/19 03:37:29;;;;;;;16.75;7.50;;;;;;;;;;4914766;29;20036;-80
2023/07/19 03:39:55;;;;;;;18.20;7.82;;;;;;;;;;4913522;29;20024;-80
2023/07/19 03:42:21;;;;;;;18.73;7.13;;;;;;;;;;4912163;29;20032;-80
2023/07/19 03:44:47;;;;;;;17.85;7.72;;;;;;;;;;4914375;29;20067;-80
2023/07/19 03:47:13;;;;;;;13.38;6.80;;;;;;;;;;4914106;29;20044;-80
2023/07/19 03:49:39;;;;;;;18.13;7.65;;;;;;;;;;4914160;29;20087;-80
2023/07/19 03:52:05;;;;;;;13.02;6.68;;;;;;;;;;4920537;29;20515;-80
2023/07/19 03:54:31;;;;;;;14.15;7.40;;;;;;;;;;4896953;29;20051;-79
2023/07/19 03:56:57;;;;;;;20.05;7.20;;;;;;;;;;4913822;29;20028;-80
2023/07/19 03:59:23;;;;;;;55.55;17.35;;;;;;;;;;4914231;29;20043;-81
2023/07/19 04:01:49;;;;;;;28.13;13.00;;;;;;;;;;4911554;29;20036;-80
2023/07/19 04:04:15;;;;;;;35.67;15.60;;;;;;;;;;4914310;29;20476;-80
2023/07/19 04:06:42;;;;;;;30.55;15.15;;;;;;;;;;4912466;29;20068;-80
2023/07/19 04:09:08;;;;;;;33.22;16.20;;;;;;;;;;4913914;29;20080;-80
2023/07/19 04:11:34;;;;;;;37.17;14.63;;;;;;;;;;4913072;29;20087;-80
2023/07/19 04:14:00;;;;;;;31.33;11.95;;;;;;;;;;4911147;29;20064;-80
2023/07/19 04:16:26;;;;;;;23.13;11.45;;;;;;;;;;4913486;29;20032;-80
2023/07/19 04:18:52;;;;;;;31.05;11.63;;;;;;;;;;4916915;29;20043;-80
2023/07/19 04:21:19;;;;;;;25.50;11.38;;;;;;;;;;4913512;29;20072;-80
2023/07/19 04:23:45;;;;;;;35.15;13.73;;;;;;;;;;4913103;29;20065;-80
2023/07/19 04:26:11;;;;;;;32.35;15.40;;;;;;;;;;4913479;29;20077;-80
2023/07/19 04:28:37;;;;;;;33.78;16.83;;;;;;;;;;4904477;29;20045;-80
2023/07/19 04:31:03;;;;;;;25.88;13.88;;;;;;;;;;4898026;29;20028;-79
2023/07/19 04:33:30;;;;;;;22.75;11.90;;;;;;;;;;4912502;29;20523;-80
2023/07/19 04:35:56;;;;;;;23.67;12.55;;;;;;;;;;4913272;29;20047;-80
2023/07/19 04:38:22;;;;;;;17.27;9.73;;;;;;;;;;4913293;29;20040;-80
2023/07/19 04:40:48;;;;;;;21.45;9.70;;;;;;;;;;4913288;29;20039;-79
2023/07/19 04:43:14;;;;;;;20.77;10.23;;;;;;;;;;4912790;29;20028;-80
2023/07/19 04:45:43;;;;;;;29.95;12.25;;;;;;;;;;4912877;29;20360;-80
2023/07/19 04:48:09;;;;;;;27.20;10.50;;;;;;;;;;4914675;29;20035;-80
2023/07/19 04:50:37;;;;;;;23.65;10.35;;;;;;;;;;4913045;29;20055;-80
2023/07/19 04:53:03;;;;;;;34.78;11.00;;;;;;;;;;4915893;29;20095;-80
2023/07/19 04:55:29;;;;;;;25.77;10.95;;;;;;;;;;4913818;29;20040;-80
2023/07/19 04:57:54;;;;;;;25.73;9.68;;;;;;;;;;4912719;29;20031;-81
2023/07/19 05:00:21;;;;;;;34.35;11.02;;;;;;;;;;4909122;29;20071;-80
2023/07/19 05:02:47;;;;;;;20.15;9.90;;;;;;;;;;4886834;29;20128;-80
2023/07/19 05:05:14;;;;;;;19.85;8.82;;;;;;;;;;4901576;29;20116;-80
2023/07/19 05:07:40;;;;;;;23.10;14.98;;;;;;;;;;4912345;29;20038;-79
2023/07/19 05:10:07;;;;;;;25.05;14.23;;;;;;;;;;4913626;29;20044;-78
2023/07/19 05:12:33;;;;;;;19.20;9.82;;;;;;;;;;4920559;29;20032;-79
2023/07/19 05:15:00;;;;;;;17.63;10.07;;;;;;;;;;4913368;29;20123;-79
2023/07/19 05:17:26;;;;;;;17.23;8.48;;;;;;;;;;4912409;29;20060;-79
2023/07/19 05:19:52;;;;;;;14.63;8.98;;;;;;;;;;4913310;29;20075;-79
2023/07/19 05:22:18;;;;;;;19.67;10.40;;;;;;;;;;4912603;29;20032;-80
2023/07/19 05:24:44;;;;;;;17.65;9.43;;;;;;;;;;4913290;29;20054;-79
2023/07/19 05:27:15;;;;;;;15.18;7.97;;;;;;;;;;4902784;29;20036;-80
2023/07/19 05:29:41;;;;;;;18.13;9.43;;;;;;;;;;4907252;29;20040;-80
2023/07/19 05:32:07;;;;;;;18.63;9.88;;;;;;;;;;4912441;29;20033;-80
2023/07/19 05:34:33;;;;;;;17.33;8.50;;;;;;;;;;4908635;29;20132;-80
2023/07/19 05:36:59;;;;;;;13.43;7.38;;;;;;;;;;4900099;29;20100;-80
2023/07/19 05:39:25;;;;;;;15.52;8.50;;;;;;;;;;4918025;29;20460;-79
2023/07/19 05:41:51;;;;;;;18.65;8.63;;;;;;;;;;4915539;29;20388;-80
2023/07/19 05:44:17;;;;;;;19.13;8.65;;;;;;;;;;4913280;29;20044;-81
2023/07/19 05:46:43;;;;;;;13.38;7.40;;;;;;;;;;4912632;29;20043;-80
2023/07/19 05:49:10;;;;;;;11.50;6.55;;;;;;;;;;4915024;29;20115;-81
2023/07/19 05:51:36;;;;;;;11.35;6.90;;;;;;;;;;4910576;29;20056;-79
2023/07/19 05:54:03;;;;;;;19.45;7.97;;;;;;;;;;4913200;29;20044;-79
2023/07/19 05:56:29;;;;;;;17.88;7.70;;;;;;;;;;4915240;29;20032;-79
2023/07/19 05:58:55;;;;;;;17.95;8.90;;;;;;;;;;4896498;29;20036;-79
2023/07/19 06:01:21;;;;;;;17.58;8.38;;;;;;;;;;4902487;29;20116;-79
2023/07/19 06:03:47;;;;;;;13.15;7.43;;;;;;;;;;4895953;29;20463;-79
2023/07/19 06:06:15;;;;;;;18.67;7.15;;;;;;;;;;4897927;29;20028;-80
2023/07/19 06:08:41;;;;;;;14.75;6.00;;;;;;;;;;4916555;29;20661;-80
2023/07/19 06:11:07;;;;;;;13.63;6.97;;;;;;;;;;4891440;29;20062;-80
2023/07/19 06:13:33;;;;;;;15.05;5.80;;;;;;;;;;4915351;29;20079;-79
2023/07/19 06:15:59;;;;;;;11.80;5.93;;;;;;;;;;4914600;29;20127;-79
2023/07/19 06:18:25;;;;;;;14.18;5.82;;;;;;;;;;4911823;29;20051;-80
2023/07/19 06:20:51;;;;;;;12.35;6.32;;;;;;;;;;4917184;29;20028;-80
2023/07/19 06:23:17;;;;;;;14.27;5.80;;;;;;;;;;4898301;29;20071;-79
2023/07/19 06:25:47;;;;;;;11.45;5.65;;;;;;;;;;4919923;29;20055;-79
2023/07/19 06:28:13;;;;;;;13.98;6.00;;;;;;;;;;4915215;29;20091;-79
2023/07/19 06:30:39;;;;;;;14.85;5.43;;;;;;;;;;4919324;29;20033;-79
2023/07/19 06:33:05;;;;;;;13.23;6.03;;;;;;;;;;4914188;29;20040;-79
2023/07/19 06:35:32;;;;;;;11.38;5.10;;;;;;;;;;4915738;29;20032;-80
2023/07/19 06:37:58;;;;;;;14.18;5.20;;;;;;;;;;4915281;29;20519;-80
2023/07/19 06:40:26;;;;;;;9.30;4.32;;;;;;;;;;4912161;29;20044;-80
2023/07/19 06:42:52;;;;;;;15.32;4.65;;;;;;;;;;4902964;29;20487;-80
2023/07/19 06:45:18;;;;;;;9.13;4.85;;;;;;;;;;4912490;29;20031;-80
2023/07/19 06:47:44;;;;;;;11.52;5.07;;;;;;;;;;4915419;29;20047;-80
2023/07/19 06:50:10;;;;;;;8.68;4.32;;;;;;;;;;4913540;29;20083;-80
2023/07/19 06:52:36;;;;;;;9.23;5.10;;;;;;;;;;4898272;29;20062;-80
2023/07/19 06:55:03;;;;;;;9.38;4.10;;;;;;;;;;4898798;29;20578;-80
2023/07/19 06:57:29;;;;;;;11.98;4.93;;;;;;;;;;4913597;29;20119;-80
2023/07/19 06:59:55;;;;;;;10.60;4.40;;;;;;;;;;4915078;29;20193;-80
2023/07/19 07:02:21;;;;;;;10.55;4.95;;;;;;;;;;4905967;29;20120;-80
2023/07/19 07:04:47;;;;;;;10.40;5.45;;;;;;;;;;4914518;29;20558;-81
2023/07/19 07:07:15;;;;;;;12.60;5.20;;;;;;;;;;4915230;29;20035;-81
2023/07/19 07:09:44;;;;;;;11.45;3.80;;;;;;;;;;4912578;29;20040;-80
2023/07/19 07:12:13;;;;;;;9.70;4.78;;;;;;;;;;4897430;29;20072;-80
2023/07/19 07:14:40;;;;;;;10.73;4.55;;;;;;;;;;4898774;29;20059;-80
2023/07/19 07:17:06;;;;;;;8.68;4.30;;;;;;;;;;4900580;29;22312;-81
2023/07/19 07:19:32;;;;;;;11.00;4.97;;;;;;;;;;4913041;29;20032;-80
2023/07/19 07:21:58;;;;;;;12.88;5.05;;;;;;;;;;4916645;29;20046;-80
2023/07/19 07:24:25;;;;;;;13.02;5.57;;;;;;;;;;4903221;29;20048;-80
2023/07/19 07:26:51;;;;;;;8.93;5.70;;;;;;;;;;4902705;29;20036;-80
2023/07/19 07:29:17;;;;;;;11.98;4.85;;;;;;;;;;4895330;29;20210;-80
2023/07/19 07:31:43;;;;;;;11.45;5.63;;;;;;;;;;4920252;29;20047;-80
2023/07/19 07:34:09;;;;;;;10.93;5.03;;;;;;;;;;4914279;29;20123;-81
2023/07/19 07:36:35;;;;;;;11.85;5.57;;;;;;;;;;4901211;29;20032;-81
2023/07/19 07:39:02;;;;;;;11.52;4.40;;;;;;;;;;4912775;29;20040;-81
2023/07/19 07:41:28;;;;;;;13.68;6.13;;;;;;;;;;4919354;29;20032;-80
2023/07/19 07:43:54;;;;;;;11.20;5.18;;;;;;;;;;4899502;29;20032;-81
2023/07/19 07:46:20;;;;;;;11.50;6.07;;;;;;;;;;4911876;29;20043;-80
2023/07/19 07:48:46;;;;;;;14.27;6.95;;;;;;;;;;4912922;29;20035;-81
2023/07/19 07:51:12;;;;;;;11.32;6.43;;;;;;;;;;4914978;29;20035;-81
2023/07/19 07:53:39;;;;;;;10.48;6.63;;;;;;;;;;4908166;29;20084;-81
2023/07/19 07:56:05;;;;;;;16.05;6.88;;;;;;;;;;4914057;29;20703;-81
2023/07/19 07:58:31;;;;;;;14.35;6.05;;;;;;;;;;4903925;29;20180;-80
2023/07/19 08:00:57;;;;;;;14.38;6.47;;;;;;;;;;4915254;29;20123;-81
2023/07/19 08:03:23;;;;;;;12.82;6.28;;;;;;;;;;4914064;29;20024;-81
2023/07/19 08:05:49;;;;;;;12.05;5.82;;;;;;;;;;4915551;29;20083;-80
2023/07/19 08:08:15;;;;;;;12.40;5.80;;;;;;;;;;4892323;29;20040;-80
2023/07/19 08:10:41;;;;;;;11.60;5.70;;;;;;;;;;4912204;29;20082;-80
2023/07/19 08:13:07;;;;;;;12.90;5.93;;;;;;;;;;4908779;29;20028;-81
2023/07/19 08:15:33;;;;;;;12.25;5.50;;;;;;;;;;4896069;29;20064;-81
2023/07/19 08:18:00;;;;;;;16.67;6.32;;;;;;;;;;4918445;29;20115;-81
2023/07/19 08:20:26;;;;;;;13.38;6.18;;;;;;;;;;4896102;29;20036;-81
2023/07/19 08:22:54;;;;;;;13.55;7.03;;;;;;;;;;4898640;29;20036;-81
2023/07/19 08:25:21;;;;;;;18.67;7.03;;;;;;;;;;4914089;29;20040;-81
2023/07/19 08:27:47;;;;;;;15.23;5.70;;;;;;;;;;4897640;29;20058;-81
2023/07/19 08:30:15;;;;;;;13.35;5.65;;;;;;;;;;4912682;29;20076;-81
2023/07/19 08:32:42;;;;;;;13.10;6.65;;;;;;;;;;4909826;29;20028;-81
2023/07/19 08:35:08;;;;;;;10.07;5.82;;;;;;;;;;4908414;29;20135;-81
2023/07/19 08:37:34;;;;;;;13.45;5.10;;;;;;;;;;4903600;29;20039;-81
2023/07/19 08:40:00;;;;;;;13.45;5.93;;;;;;;;;;4904604;29;20073;-81
2023/07/19 08:42:26;;;;;;;12.23;5.32;;;;;;;;;;4900354;29;20070;-81
2023/07/19 08:44:52;;;;;;;9.48;6.00;;;;;;;;;;4913038;29;20126;-81
2023/07/19 08:47:18;;;;;;;13.15;5.65;;;;;;;;;;4896698;29;20047;-81
2023/07/19 08:49:45;;;;;;;14.77;5.55;;;;;;;;;;4910615;29;20068;-81
2023/07/19 08:52:13;;;;;;;15.68;5.30;;;;;;;;;;4914139;29;20040;-80
2023/07/19 08:54:39;;;;;;;10.77;5.05;;;;;;;;;;4892785;29;20044;-81
2023/07/19 08:57:06;;;;;;;9.48;4.88;;;;;;;;;;4888072;29;20116;-80
2023/07/19 08:59:32;;;;;;;11.57;5.10;;;;;;;;;;4905219;29;20159;-81
2023/07/19 09:01:58;;;;;;;9.30;5.13;;;;;;;;;;4907205;29;20395;-81
2023/07/19 09:04:24;;;;;;;9.93;4.97;;;;;;;;;;4915168;29;20162;-82
2023/07/19 09:06:50;;;;;;;10.32;5.22;;;;;;;;;;4911640;29;20069;-81
2023/07/19 09:09:19;;;;;;;13.38;5.97;;;;;;;;;;4899078;29;20044;-81
2023/07/19 09:11:51;;;;;;;11.88;5.28;;;;;;;;;;4911809;29;20040;-81
2023/07/19 09:14:17;;;;;;;10.38;4.85;;;;;;;;;;4918004;29;20050;-82
2023/07/19 09:16:48;;;;;;;9.45;4.75;;;;;;;;;;4896489;29;20472;-81
2023/07/19 09:19:14;;;;;;;18.55;5.28;;;;;;;;;;4900535;29;20395;-81
2023/07/19 09:21:44;;;;;;;12.23;6.22;;;;;;;;;;4910824;29;20032;-81
2023/07/19 09:24:11;;;;;;;13.40;5.25;;;;;;;;;;4896589;29;20047;-81
2023/07/19 09:26:44;;;;;;;10.05;4.80;;;;;;;;;;4912396;29;20130;-81
2023/07/19 09:29:11;;;;;;;12.52;5.80;;;;;;;;;;4897428;29;20048;-81
2023/07/19 09:31:53;;;;;;;10.45;6.05;;;;;;;;;;4913990;29;20885;-81
2023/07/19 09:34:19;;;;;;;12.95;5.55;;;;;;;;;;4909908;29;20040;-81
2023/07/19 09:36:46;;;;;;;11.93;5.68;;;;;;;;;;4916702;29;20472;-81
2023/07/19 09:39:12;;;;;;;10.57;5.15;;;;;;;;;;4903672;29;20044;-81
2023/07/19 09:41:38;;;;;;;10.15;5.13;;;;;;;;;;4899136;29;20039;-81
2023/07/19 09:44:09;;;;;;;10.02;5.95;;;;;;;;;;4898726;29;20042;-80
2023/07/19 09:46:36;;;;;;;12.93;5.87;;;;;;;;;;4916629;29;20155;-81
2023/07/19 09:49:02;;;;;;;10.27;5.32;;;;;;;;;;4904792;29;20105;-80
2023/07/19 09:51:30;;;;;;;9.32;4.82;;;;;;;;;;4882680;29;20032;-80
2023/07/19 09:53:58;;;;;;;13.50;4.97;;;;;;;;;;4897064;29;20064;-81
2023/07/19 09:56:24;;;;;;;8.07;4.95;;;;;;;;;;4894168;29;20439;-81
2023/07/19 09:58:50;;;;;;;11.07;5.13;;;;;;;;;;4897196;29;20037;-80
2023/07/19 10:01:17;;;;;;;9.68;5.78;;;;;;;;;;4884506;29;20037;-80
2023/07/19 10:03:46;;;;;;;9.98;5.40;;;;;;;;;;4885168;29;20036;-80
2023/07/19 10:06:14;;;;;;;10.02;5.50;;;;;;;;;;4880046;29;20037;-81
2023/07/19 10:08:40;;;;;;;10.35;5.82;;;;;;;;;;4867574;29;20040;-81
2023/07/19 10:11:07;;;;;;;10.90;5.63;;;;;;;;;;4901958;29;20047;-80
2023/07/19 10:13:52;;;;;;;10.98;4.85;;;;;;;;;;4880098;29;20047;-81
2023/07/19 10:16:23;;;;;;;12.73;5.28;;;;;;;;;;4887473;29;20043;-81
2023/07/19 10:19:07;;;;;;;11.60;5.03;;;;;;;;;;4877704;29;20043;-81
2023/07/19 10:21:33;;;;;;;9.85;4.97;;;;;;;;;;4869914;29;20266;-81
2023/07/19 10:24:07;;;;;;;11.50;5.60;;;;;;;;;;4878640;29;20037;-81
2023/07/19 10:26:36;;;;;;;11.82;5.00;;;;;;;;;;4894735;29;20044;-81
2023/07/19 10:29:02;;;;;;;9.98;4.60;;;;;;;;;;4877713;29;20392;-81
2023/07/19 10:31:28;;;;;;;8.90;5.20;;;;;;;;;;4877063;29;20044;-81
2023/07/19 10:33:54;;;;;;;14.82;5.75;;;;;;;;;;4895518;29;20051;-80
2023/07/19 10:36:20;;;;;;;11.30;5.63;;;;;;;;;;4881450;29;20029;-81
2023/07/19 10:38:46;;;;;;;12.52;6.07;;;;;;;;;;4889046;29;20043;-81
2023/07/19 10:41:14;;;;;;;11.38;5.80;;;;;;;;;;4881043;29;20040;-80
2023/07/19 10:43:40;;;;;;;12.85;6.15;;;;;;;;;;4889236;29;20043;-80
2023/07/19 10:46:06;;;;;;;15.57;5.32;;;;;;;;;;4871409;29;20042;-81
2023/07/19 10:48:33;;;;;;;11.50;5.72;;;;;;;;;;4897190;29;20041;-81
2023/07/19 10:51:00;;;;;;;9.48;5.40;;;;;;;;;;4913396;29;20470;-80
2023/07/19 10:53:26;;;;;;;9.57;5.13;;;;;;;;;;4917393;29;20032;-81
2023/07/19 10:55:56;;;;;;;11.15;5.80;;;;;;;;;;4914595;29;20031;-81
2023/07/19 10:58:24;;;;;;;12.70;5.50;;;;;;;;;;4910166;29;20028;-81
2023/07/19 11:00:51;;;;;;;10.05;5.68;;;;;;;;;;4890195;29;20028;-80
2023/07/19 11:03:17;;;;;;;9.80;5.55;;;;;;;;;;4898365;29;20029;-80
2023/07/19 11:05:47;;;;;;;15.73;5.90;;;;;;;;;;4912151;29;20040;-80
2023/07/19 11:08:20;;;;;;;11.15;5.22;;;;;;;;;;4916795;29;20423;-81
2023/07/19 11:10:46;;;;;;;10.90;5.30;;;;;;;;;;4897481;29;20047;-81
2023/07/19 11:13:13;;;;;;;12.55;6.60;;;;;;;;;;4900707;29;20684;-80
2023/07/19 11:15:42;;;;;;;9.55;4.85;;;;;;;;;;4895924;29;20046;-80
2023/07/19 11:18:08;;;;;;;11.73;6.20;;;;;;;;;;4890580;29;20044;-81
2023/07/19 11:20:38;;;;;;;10.70;5.78;;;;;;;;;;4913826;29;20040;-81
2023/07/19 11:23:07;;;;;;;9.40;5.95;;;;;;;;;;4897764;29;20038;-81
2023/07/19 11:25:33;;;;;;;13.63;5.95;;;;;;;;;;4913476;29;20050;-81
2023/07/19 11:28:00;;;;;;;10.60;5.72;;;;;;;;;;4911594;29;20038;-81
2023/07/19 11:30:35;;;;;;;13.60;5.95;;;;;;;;;;4913745;29;20383;-81
2023/07/19 11:33:10;;;;;;;11.02;5.43;;;;;;;;;;4916221;29;20035;-80
2023/07/19 11:35:37;;;;;;;13.27;5.78;;;;;;;;;;4913412;29;20131;-80
2023/07/19 11:38:03;;;;;;;12.93;5.93;;;;;;;;;;4917421;29;20407;-80
2023/07/19 11:40:29;;;;;;;22.60;5.63;;;;;;;;;;4914924;29;20036;-81
2023/07/19 11:42:57;;;;;;;13.57;6.38;;;;;;;;;;4911827;29;20113;-80
2023/07/19 11:45:27;;;;;;;15.23;6.00;;;;;;;;;;4913399;29;20043;-81
2023/07/19 11:48:01;;;;;;;11.20;5.93;;;;;;;;;;4909118;29;20037;-81
2023/07/19 11:50:27;;;;;;;15.48;5.65;;;;;;;;;;4913708;29;20059;-80
2023/07/19 11:52:56;;;;;;;11.45;5.15;;;;;;;;;;4916702;29;20024;-80
2023/07/19 11:55:22;;;;;;;12.32;5.20;;;;;;;;;;4898772;29;20068;-80
2023/07/19 11:57:51;;;;;;;12.23;5.40;;;;;;;;;;4903425;29;20476;-80
2023/07/19 12:00:17;;;;;;;13.60;6.40;;;;;;;;;;4900935;29;20040;-80
2023/07/19 12:02:44;;;;;;;10.25;5.22;;;;;;;;;;4914901;29;20032;-80
2023/07/19 12:05:10;;;;;;;11.43;5.50;;;;;;;;;;4912047;29;20047;-80
2023/07/19 12:07:36;;;;;;;13.05;5.78;;;;;;;;;;4912993;29;20036;-80
2023/07/19 12:10:04;;;;;;;12.30;4.72;;;;;;;;;;4905683;29;20044;-80
2023/07/19 12:12:30;;;;;;;12.05;5.35;;;;;;;;;;4897104;29;20028;-80
2023/07/19 12:14:56;;;;;;;10.85;5.85;;;;;;;;;;4910635;29;20074;-80
2023/07/19 12:17:22;;;;;;;10.60;5.60;;;;;;;;;;4913761;29;20713;-80
2023/07/19 12:19:48;;;;;;;10.15;5.25;;;;;;;;;;4896334;29;20036;-80
2023/07/19 12:22:14;;;;;;;9.55;4.47;;;;;;;;;;4896824;29;20616;-80
2023/07/19 12:24:40;;;;;;;13.13;5.82;;;;;;;;;;4909882;29;20059;-80
2023/07/19 12:27:06;;;;;;;13.07;5.93;;;;;;;;;;4904528;29;20052;-81
2023/07/19 12:29:32;;;;;;;13.13;6.15;;;;;;;;;;4911411;29;20047;-81
2023/07/19 12:31:58;;;;;;;9.63;5.25;;;;;;;;;;4921585;29;20582;-80
2023/07/19 12:34:24;;;;;;;17.30;6.20;;;;;;;;;;4901785;29;20169;-80
2023/07/19 12:36:50;;;;;;;10.63;5.80;;;;;;;;;;4913703;29;20036;-80
2023/07/19 12:39:23;;;;;;;12.35;5.15;;;;;;;;;;4898700;29;20638;-80
2023/07/19 12:41:49;;;;;;;14.43;6.63;;;;;;;;;;4910552;29;20028;-80
2023/07/19 12:44:15;;;;;;;10.65;6.18;;;;;;;;;;4896983;29;20066;-80
2023/07/19 12:46:41;;;;;;;12.25;5.60;;;;;;;;;;4898683;29;20372;-81
2023/07/19 12:49:07;;;;;;;8.27;4.95;;;;;;;;;;4912651;29;20159;-81
2023/07/19 12:51:34;;;;;;;11.30;4.95;;;;;;;;;;4914769;29;20687;-81
2023/07/19 12:54:00;;;;;;;12.07;5.32;;;;;;;;;;4896344;29;20134;-80
2023/07/19 12:56:27;;;;;;;12.65;5.65;;;;;;;;;;4899248;29;20032;-81
2023/07/19 12:58:55;;;;;;;11.98;5.32;;;;;;;;;;4895928;29;20677;-80
2023/07/19 13:01:21;;;;;;;12.75;5.55;;;;;;;;;;4920009;29;20052;-81
2023/07/19 13:03:47;;;;;;;13.38;5.45;;;;;;;;;;4900009;29;20056;-81
2023/07/19 13:06:13;;;;;;;8.55;5.10;;;;;;;;;;4916098;29;20032;-80
2023/07/19 13:08:39;;;;;;;12.50;5.35;;;;;;;;;;4900419;29;20062;-80
2023/07/19 13:11:06;;;;;;;11.70;5.25;;;;;;;;;;4915048;29;20039;-80
2023/07/19 13:13:32;;;;;;;15.57;5.70;;;;;;;;;;4917236;29;20036;-80
2023/07/19 13:15:58;;;;;;;13.35;6.25;;;;;;;;;;4901731;29;20124;-80
2023/07/19 13:18:24;;;;;;;17.23;5.68;;;;;;;;;;4915858;29;20123;-80
2023/07/19 13:20:51;;;;;;;18.15;5.90;;;;;;;;;;4899082;29;20070;-80
2023/07/19 13:23:17;;;;;;;10.32;5.10;;;;;;;;;;4900149;29;20147;-81
2023/07/19 13:25:43;;;;;;;9.73;5.75;;;;;;;;;;4900626;29;20144;-80
2023/07/19 13:28:09;;;;;;;11.55;5.10;;;;;;;;;;4916439;29;20028;-80
2023/07/19 13:30:37;;;;;;;12.98;5.93;;;;;;;;;;4907683;29;20043;-81
2023/07/19 13:33:03;;;;;;;10.98;5.53;;;;;;;;;;4903976;29;20440;-81
2023/07/19 13:35:29;;;;;;;14.00;5.40;;;;;;;;;;4915242;29;20051;-80
2023/07/19 13:37:55;;;;;;;13.27;6.32;;;;;;;;;;4900988;29;20032;-80
2023/07/19 13:40:21;;;;;;;10.38;5.43;;;;;;;;;;4915747;29;20395;-80
2023/07/19 13:42:47;;;;;;;11.73;5.65;;;;;;;;;;4921555;29;20240;-81
2023/07/19 13:45:13;;;;;;;12.63;5.57;;;;;;;;;;4899449;29;20036;-80
2023/07/19 13:47:39;;;;;;;10.07;5.28;;;;;;;;;;4905688;29;20039;-81
2023/07/19 13:50:05;;;;;;;10.32;5.00;;;;;;;;;;4911557;29;20060;-80
2023/07/19 13:52:31;;;;;;;14.50;5.82;;;;;;;;;;4898269;29;20040;-80
2023/07/19 13:54:57;;;;;;;13.73;5.82;;;;;;;;;;4911883;29;20044;-81
2023/07/19 13:57:23;;;;;;;8.25;5.07;;;;;;;;;;4891587;29;20099;-80
2023/07/19 13:59:49;;;;;;;12.90;6.13;;;;;;;;;;4912013;29;20483;-80
2023/07/19 14:02:16;;;;;;;15.45;6.10;;;;;;;;;;4893917;29;20025;-80
2023/07/19 14:04:41;;;;;;;14.35;5.45;;;;;;;;;;4887859;29;20085;-81
2023/07/19 14:07:07;;;;;;;14.05;5.68;;;;;;;;;;4893718;29;20036;-80
2023/07/19 14:09:33;;;;;;;15.95;5.95;;;;;;;;;;4895845;29;20690;-81
2023/07/19 14:12:00;;;;;;;16.75;6.07;;;;;;;;;;4910771;29;20056;-81
2023/07/19 14:14:26;;;;;;;12.90;5.40;;;;;;;;;;4900854;29;20041;-80
2023/07/19 14:16:52;;;;;;;12.95;5.28;;;;;;;;;;4893458;29;20063;-81
2023/07/19 14:19:18;;;;;;;9.52;5.40;;;;;;;;;;4897705;29;20067;-81
2023/07/19 14:21:44;;;;;;;10.80;5.63;;;;;;;;;;4907517;29;20112;-81
2023/07/19 14:24:10;;;;;;;10.80;5.72;;;;;;;;;;4900656;29;20040;-81
2023/07/19 14:26:37;;;;;;;11.40;6.15;;;;;;;;;;4892690;29;20040;-80